createdAt,value
2022-08-30T00:00:16.104Z,29.72
2022-08-30T00:02:44.577Z,29.86
2022-08-30T00:05:16.919Z,29.61
2022-08-30T00:07:45.897Z,29.50
2022-08-30T00:10:13.794Z,29.93
2022-08-30T00:12:43.867Z,29.57
2022-08-30T00:15:14.121Z,29.93
2022-08-30T00:17:43.683Z,29.44
2022-08-30T00:20:14.359Z,29.91
2022-08-30T00:22:42.617Z,29.91
2022-08-30T00:25:10.630Z,29.60
2022-08-30T00:27:38.997Z,29.76
2022-08-30T00:30:10.520Z,29.75
2022-08-30T00:32:38.184Z,29.89
2022-08-30T00:35:07.587Z,29.43
2022-08-30T00:37:35.687Z,29.42
2022-08-30T00:40:05.829Z,29.67
2022-08-30T00:42:33.722Z,29.87
2022-08-30T00:45:10.106Z,29.56
2022-08-30T00:47:37.624Z,29.85
2022-08-30T00:50:08.665Z,29.85
2022-08-30T00:52:41.349Z,29.78
2022-08-30T00:55:09.857Z,29.56
2022-08-30T00:57:37.621Z,29.86
2022-08-30T01:00:07.187Z,29.18
2022-08-30T01:02:35.306Z,29.58
2022-08-30T01:05:05.659Z,29.63
2022-08-30T01:07:35.320Z,29.87
2022-08-30T01:10:05.384Z,29.87
2022-08-30T01:12:34.457Z,29.56
2022-08-30T01:15:02.740Z,29.48
2022-08-30T01:17:30.806Z,29.77
2022-08-30T01:20:07.242Z,29.87
2022-08-30T01:22:43.992Z,29.89
2022-08-30T01:25:22.231Z,29.35
2022-08-30T01:27:54.237Z,29.46
2022-08-30T01:30:24.574Z,29.29
2022-08-30T01:33:01.389Z,29.16
2022-08-30T01:35:35.897Z,29.40
2022-08-30T01:38:03.775Z,29.42
2022-08-30T01:40:31.421Z,29.21
2022-08-30T01:43:00.599Z,29.65
2022-08-30T01:45:28.247Z,29.79
2022-08-30T01:47:56.193Z,29.58
2022-08-30T01:50:27.656Z,29.76
2022-08-30T01:52:56.719Z,29.16
2022-08-30T01:55:25.031Z,29.43
2022-08-30T01:57:52.767Z,29.71
2022-08-30T02:00:21.956Z,29.34
2022-08-30T02:02:49.709Z,29.38
2022-08-30T02:05:17.651Z,29.70
2022-08-30T02:07:45.406Z,29.26
2022-08-30T02:10:15.074Z,29.24
2022-08-30T02:12:43.169Z,29.68
2022-08-30T02:15:11.178Z,29.67
2022-08-30T02:17:39.679Z,29.45
2022-08-30T02:20:08.221Z,29.66
2022-08-30T02:22:35.871Z,29.55
2022-08-30T02:25:06.578Z,29.64
2022-08-30T02:27:39.476Z,29.65
2022-08-30T02:30:11.123Z,29.63
2022-08-30T02:32:38.929Z,29.50
2022-08-30T02:35:06.847Z,29.18
2022-08-30T02:37:34.672Z,28.65
2022-08-30T02:40:02.563Z,29.53
2022-08-30T02:42:30.366Z,29.63
2022-08-30T02:44:58.224Z,29.30
2022-08-30T02:47:26.861Z,29.64
2022-08-30T02:49:54.696Z,29.21
2022-08-30T02:52:27.648Z,29.63
2022-08-30T02:54:57.835Z,29.63
2022-08-30T02:57:26.012Z,29.49
2022-08-30T02:59:53.748Z,29.31
2022-08-30T03:02:22.633Z,29.60
2022-08-30T03:04:50.598Z,29.39
2022-08-30T03:07:19.966Z,29.61
2022-08-30T03:09:47.840Z,29.58
2022-08-30T03:12:16.838Z,29.61
2022-08-30T03:14:44.738Z,29.06
2022-08-30T03:17:13.804Z,29.60
2022-08-30T03:19:47.583Z,29.27
2022-08-30T03:22:15.871Z,29.51
2022-08-30T03:24:45.425Z,29.62
2022-08-30T03:27:14.939Z,29.62
2022-08-30T03:29:42.955Z,29.62
2022-08-30T03:32:15.710Z,29.48
2022-08-30T03:34:44.619Z,29.41
2022-08-30T03:37:12.286Z,29.37
2022-08-30T03:39:40.624Z,29.60
2022-08-30T03:42:08.747Z,29.30
2022-08-30T03:44:36.814Z,29.06
2022-08-30T03:47:07.461Z,29.59
2022-08-30T03:49:35.534Z,29.60
2022-08-30T03:52:04.501Z,29.49
2022-08-30T03:54:32.345Z,29.61
2022-08-30T03:57:01.066Z,29.61
2022-08-30T03:59:28.780Z,29.29
2022-08-30T04:01:56.585Z,29.60
2022-08-30T04:04:24.501Z,29.50
2022-08-30T04:06:52.228Z,29.01
2022-08-30T04:09:20.217Z,29.40
2022-08-30T04:11:48.051Z,29.61
2022-08-30T04:14:15.791Z,29.60
2022-08-30T04:16:43.759Z,29.57
2022-08-30T04:19:11.930Z,29.38
2022-08-30T04:21:43.127Z,29.59
2022-08-30T04:24:12.461Z,29.59
2022-08-30T04:26:40.100Z,29.01
2022-08-30T04:29:08.188Z,29.51
2022-08-30T04:31:35.900Z,29.41
2022-08-30T04:34:03.856Z,29.10
2022-08-30T04:36:31.573Z,29.46
2022-08-30T04:38:59.384Z,29.30
2022-08-30T04:41:27.231Z,29.49
2022-08-30T04:43:54.932Z,28.95
2022-08-30T04:46:22.777Z,29.56
2022-08-30T04:48:50.453Z,29.47
2022-08-30T04:51:18.541Z,29.23
2022-08-30T04:53:46.699Z,29.49
2022-08-30T04:56:17.410Z,29.56
2022-08-30T04:58:46.551Z,29.55
2022-08-30T05:01:20.604Z,29.53
2022-08-30T05:03:52.979Z,29.27
2022-08-30T05:06:21.363Z,29.41
2022-08-30T05:08:51.738Z,29.29
2022-08-30T05:11:20.275Z,29.49
2022-08-30T05:13:49.841Z,29.14
2022-08-30T05:16:19.539Z,29.48
2022-08-30T05:18:49.139Z,29.45
2022-08-30T05:21:28.259Z,29.44
2022-08-30T05:23:58.440Z,28.89
2022-08-30T05:26:29.658Z,29.42
2022-08-30T05:28:57.858Z,29.27
2022-08-30T05:31:32.415Z,29.41
2022-08-30T05:34:01.506Z,29.03
2022-08-30T05:36:31.856Z,29.36
2022-08-30T05:39:00.668Z,29.36
2022-08-30T05:41:29.132Z,29.16
2022-08-30T05:43:59.036Z,28.82
2022-08-30T05:49:07.539Z,29.37
2022-08-30T05:51:43.132Z,29.23
2022-08-30T05:54:13.170Z,29.33
2022-08-30T05:56:42.741Z,29.21
2022-08-30T05:59:10.408Z,29.18
2022-08-30T06:01:44.504Z,29.20
2022-08-30T06:04:13.605Z,29.08
2022-08-30T06:06:43.213Z,29.10
2022-08-30T06:09:13.133Z,29.14
2022-08-30T06:11:40.957Z,29.00
2022-08-30T06:14:09.059Z,28.89
2022-08-30T06:16:39.141Z,29.07
2022-08-30T06:19:09.685Z,29.08
2022-08-30T06:21:39.498Z,29.09
2022-08-30T06:24:09.120Z,28.87
2022-08-30T06:26:47.424Z,29.09
2022-08-30T06:29:19.060Z,28.59
2022-08-30T06:31:47.634Z,29.07
2022-08-30T06:34:16.615Z,29.06
2022-08-30T06:36:44.647Z,29.00
2022-08-30T06:39:12.316Z,28.99
2022-08-30T06:41:41.479Z,29.12
2022-08-30T06:44:28.225Z,29.14
2022-08-30T06:46:58.461Z,29.16
2022-08-30T06:49:26.330Z,29.15
2022-08-30T06:51:54.217Z,29.17
2022-08-30T06:54:21.920Z,28.35
2022-08-30T06:56:58.035Z,29.17
2022-08-30T06:59:27.392Z,28.71
2022-08-30T07:01:56.061Z,29.05
2022-08-30T07:04:24.618Z,29.03
2022-08-30T07:06:53.609Z,29.16
2022-08-30T07:09:23.135Z,29.19
2022-08-30T07:11:51.874Z,29.20
2022-08-30T07:14:20.623Z,29.22
2022-08-30T07:16:51.257Z,29.01
2022-08-30T07:19:21.438Z,29.09
2022-08-30T07:21:50.441Z,29.27
2022-08-30T07:24:18.430Z,29.10
2022-08-30T07:26:51.979Z,29.12
2022-08-30T07:29:21.400Z,29.23
2022-08-30T07:31:49.506Z,28.96
2022-08-30T07:34:19.816Z,29.04
2022-08-30T07:36:49.382Z,28.92
2022-08-30T07:39:17.206Z,28.98
2022-08-30T07:41:44.952Z,29.40
2022-08-30T07:44:12.722Z,29.24
2022-08-30T07:46:41.984Z,29.48
2022-08-30T07:49:11.586Z,28.89
2022-08-30T07:51:40.634Z,29.59
2022-08-30T07:54:08.826Z,28.30
2022-08-30T07:56:36.518Z,29.64
2022-08-30T07:59:04.619Z,29.66
2022-08-30T08:01:32.490Z,28.86
2022-08-30T08:04:00.491Z,29.46
2022-08-30T08:06:34.687Z,29.71
2022-08-30T08:09:03.022Z,29.24
2022-08-30T08:11:33.838Z,29.39
2022-08-30T08:14:03.680Z,29.73
2022-08-30T08:16:34.427Z,29.76
2022-08-30T08:19:02.244Z,29.78
2022-08-30T08:21:29.945Z,29.78
2022-08-30T08:23:57.771Z,29.71
2022-08-30T08:26:25.440Z,29.31
2022-08-30T08:28:53.277Z,29.26
2022-08-30T08:31:31.445Z,29.63
2022-08-30T08:34:05.865Z,29.87
2022-08-30T08:36:36.021Z,29.89
2022-08-30T08:39:06.017Z,29.77
2022-08-30T08:42:11.251Z,29.17
2022-08-30T08:44:39.718Z,29.92
2022-08-30T08:47:14.373Z,29.94
2022-08-30T08:49:46.600Z,29.70
2022-08-30T08:52:40.989Z,29.85
2022-08-30T08:55:16.393Z,29.46
2022-08-30T08:57:44.367Z,29.32
2022-08-30T09:00:13.696Z,29.93
2022-08-30T09:02:59.644Z,29.93
2022-08-30T09:05:36.765Z,30.01
2022-08-30T09:08:15.006Z,29.94
2022-08-30T09:10:55.489Z,29.86
2022-08-30T09:13:24.925Z,30.12
2022-08-30T09:15:56.253Z,29.81
2022-08-30T09:18:51.243Z,30.15
2022-08-30T09:21:27.446Z,30.17
2022-08-30T09:24:01.186Z,29.35
2022-08-30T09:26:32.640Z,30.20
2022-08-30T09:29:01.159Z,30.08
2022-08-30T09:31:45.302Z,30.22
2022-08-30T09:34:18.541Z,29.49
2022-08-30T09:36:52.113Z,29.84
2022-08-30T09:39:41.566Z,29.84
2022-08-30T09:42:23.924Z,30.26
2022-08-30T09:44:53.028Z,30.18
2022-08-30T09:47:27.758Z,30.16
2022-08-30T09:50:10.153Z,30.30
2022-08-30T09:53:10.719Z,30.31
2022-08-30T09:56:02.066Z,30.32
2022-08-30T09:58:54.839Z,30.33
2022-08-30T10:01:30.067Z,30.33
2022-08-30T10:04:01.154Z,30.35
2022-08-30T10:06:37.071Z,30.38
2022-08-30T10:09:14.050Z,30.38
2022-08-30T10:11:49.405Z,30.41
2022-08-30T10:14:20.158Z,30.42
2022-08-30T10:17:20.639Z,30.26
2022-08-30T10:20:10.758Z,30.39
2022-08-30T10:22:44.123Z,30.54
2022-08-30T10:25:21.883Z,30.46
2022-08-30T10:27:56.432Z,30.30
2022-08-30T10:30:29.064Z,30.43
2022-08-30T10:33:12.553Z,30.64
2022-08-30T10:35:47.181Z,30.58
2022-08-30T10:38:32.925Z,30.70
2022-08-30T10:41:24.867Z,30.65
2022-08-30T10:44:07.765Z,30.58
2022-08-30T10:47:01.579Z,30.80
2022-08-30T10:49:35.360Z,30.82
2022-08-30T10:52:19.847Z,30.87
2022-08-30T10:54:59.695Z,30.91
2022-08-30T10:57:28.543Z,30.85
2022-08-30T11:00:11.251Z,30.78
2022-08-30T11:02:58.223Z,31.02
2022-08-30T11:05:32.458Z,31.06
2022-08-30T11:08:22.051Z,30.77
2022-08-30T11:11:26.183Z,30.29
2022-08-30T11:13:57.265Z,30.78
2022-08-30T11:16:40.004Z,31.10
2022-08-30T11:19:26.528Z,31.08
2022-08-30T11:22:25.067Z,31.08
2022-08-30T11:25:14.854Z,31.07
2022-08-30T11:27:53.149Z,31.08
2022-08-30T11:30:30.798Z,31.10
2022-08-30T11:33:10.155Z,30.81
2022-08-30T11:35:50.751Z,31.11
2022-08-30T11:38:27.742Z,31.12
2022-08-30T11:40:55.405Z,31.11
2022-08-30T11:43:40.253Z,31.12
2022-08-30T11:46:27.870Z,30.80
2022-08-30T11:48:58.620Z,31.10
2022-08-30T11:51:29.307Z,31.12
2022-08-30T11:54:26.939Z,31.13
2022-08-30T11:57:40.999Z,31.12
2022-08-30T12:00:25.226Z,30.59
2022-08-30T12:03:28.876Z,30.67
2022-08-30T12:06:00.681Z,31.06
2022-08-30T12:08:28.494Z,31.06
2022-08-30T12:11:01.181Z,30.71
2022-08-30T12:13:39.372Z,31.10
2022-08-30T12:16:20.235Z,31.14
2022-08-30T12:19:10.227Z,30.98
2022-08-30T12:21:44.964Z,31.00
2022-08-30T12:24:17.047Z,31.23
2022-08-30T12:26:47.703Z,31.19
2022-08-30T12:29:24.463Z,31.17
2022-08-30T12:31:58.590Z,31.14
2022-08-30T12:34:29.056Z,31.16
2022-08-30T12:37:15.620Z,31.17
2022-08-30T12:39:53.698Z,31.20
2022-08-30T12:42:31.266Z,31.21
2022-08-30T12:45:05.700Z,31.22
2022-08-30T12:47:48.747Z,31.26
2022-08-30T12:50:22.094Z,31.29
2022-08-30T12:53:13.940Z,31.30
2022-08-30T12:56:02.093Z,31.31
2022-08-30T12:58:43.629Z,31.30
2022-08-30T13:01:33.826Z,31.29
2022-08-30T13:04:22.968Z,30.92
2022-08-30T13:07:00.383Z,31.24
2022-08-30T13:09:32.509Z,31.31
2022-08-30T13:12:08.299Z,31.29
2022-08-30T13:14:43.790Z,31.33
2022-08-30T13:17:22.397Z,31.32
2022-08-30T13:20:26.233Z,31.35
2022-08-30T13:23:08.919Z,31.35
2022-08-30T13:25:39.177Z,31.37
2022-08-30T13:28:09.470Z,31.03
2022-08-30T13:30:39.071Z,31.38
2022-08-30T13:33:06.872Z,31.37
2022-08-30T13:35:34.787Z,30.91
2022-08-30T13:38:02.767Z,31.14
2022-08-30T13:40:32.909Z,31.33
2022-08-30T13:43:02.039Z,31.33
2022-08-30T13:45:44.942Z,31.44
2022-08-30T13:48:15.456Z,31.45
2022-08-30T13:50:46.584Z,31.36
2022-08-30T13:53:51.570Z,31.34
2022-08-30T13:56:06.154Z,31.32
2022-08-30T13:58:36.284Z,30.98
2022-08-30T14:01:04.023Z,31.44
2022-08-30T14:03:33.850Z,31.45
2022-08-30T14:06:29.538Z,31.22
2022-08-30T14:08:53.486Z,31.46
2022-08-30T14:11:23.756Z,31.45
2022-08-30T14:16:44.157Z,31.42
2022-08-30T14:19:14.187Z,31.43
2022-08-30T14:21:43.143Z,31.43
2022-08-30T14:24:14.381Z,31.44
2022-08-30T14:26:51.568Z,31.44
2022-08-30T14:29:22.838Z,31.17
2022-08-30T14:31:52.686Z,31.03
2022-08-30T14:34:21.703Z,31.50
2022-08-30T14:36:49.681Z,31.01
2022-08-30T14:39:20.064Z,31.38
2022-08-30T14:41:50.777Z,31.30
2022-08-30T14:44:20.207Z,31.43
2022-08-30T14:46:49.197Z,31.14
2022-08-30T14:49:20.116Z,30.98
2022-08-30T14:51:48.661Z,31.35
2022-08-30T14:54:23.466Z,31.23
2022-08-30T14:56:54.325Z,31.39
2022-08-30T14:59:24.132Z,31.58
2022-08-30T15:01:51.935Z,31.07
2022-08-30T15:04:21.668Z,31.60
2022-08-30T15:06:51.209Z,31.34
2022-08-30T15:09:23.768Z,31.66
2022-08-30T15:11:55.140Z,31.61
2022-08-30T15:14:26.376Z,31.37
2022-08-30T15:16:58.277Z,31.50
2022-08-30T15:19:26.846Z,31.69
2022-08-30T15:21:55.236Z,31.68
2022-08-30T15:24:29.379Z,31.21
2022-08-30T15:26:59.948Z,31.64
2022-08-30T15:29:31.482Z,31.06
2022-08-30T15:32:01.962Z,31.31
2022-08-30T15:34:31.008Z,31.60
2022-08-30T15:36:59.500Z,31.60
2022-08-30T15:39:27.479Z,31.55
2022-08-30T15:42:01.105Z,31.23
2022-08-30T15:44:34.400Z,31.53
2022-08-30T15:47:03.026Z,31.54
2022-08-30T15:49:30.826Z,31.39
2022-08-30T15:52:03.913Z,31.56
2022-08-30T15:54:31.704Z,31.12
2022-08-30T15:57:00.088Z,31.22
2022-08-30T15:59:30.189Z,31.48
2022-08-30T16:01:58.519Z,31.55
2022-08-30T16:04:29.274Z,31.13
2022-08-30T16:06:57.407Z,31.34
2022-08-30T16:09:29.848Z,31.43
2022-08-30T16:12:01.190Z,31.30
2022-08-30T16:14:29.194Z,31.45
2022-08-30T16:16:58.281Z,31.14
2022-08-30T16:19:26.677Z,31.37
2022-08-30T16:21:54.558Z,31.29
2022-08-30T16:24:23.585Z,31.12
2022-08-30T16:26:51.650Z,31.10
2022-08-30T16:29:20.174Z,31.45
2022-08-30T16:31:48.562Z,31.16
2022-08-30T16:34:18.551Z,31.07
2022-08-30T16:36:46.914Z,30.88
2022-08-30T16:39:15.273Z,31.43
2022-08-30T16:41:44.806Z,30.94
2022-08-30T16:44:16.010Z,31.41
2022-08-30T16:46:53.053Z,31.38
2022-08-30T16:49:23.036Z,31.35
2022-08-30T16:51:51.643Z,31.27
2022-08-30T16:54:21.271Z,30.59
2022-08-30T16:56:49.135Z,30.99
2022-08-30T16:59:17.845Z,31.20
2022-08-30T17:01:46.731Z,31.21
2022-08-30T17:04:18.488Z,31.02
2022-08-30T17:06:50.060Z,30.77
2022-08-30T17:09:19.362Z,31.15
2022-08-30T17:11:48.429Z,31.16
2022-08-30T17:14:22.986Z,30.59
2022-08-30T17:16:58.379Z,31.23
2022-08-30T17:22:16.018Z,30.80
2022-08-30T17:24:43.801Z,30.55
2022-08-30T17:27:11.626Z,31.16
2022-08-30T17:29:39.351Z,31.06
2022-08-30T17:32:07.387Z,31.05
2022-08-30T17:34:37.168Z,30.91
2022-08-30T17:37:05.102Z,31.01
2022-08-30T17:39:32.935Z,30.63
2022-08-30T17:42:00.832Z,31.01
2022-08-30T17:44:31.254Z,30.75
2022-08-30T17:47:00.020Z,30.84
2022-08-30T17:49:29.031Z,31.06
2022-08-30T17:51:57.891Z,30.84
2022-08-30T17:54:30.355Z,30.85
2022-08-30T17:56:59.232Z,31.03
2022-08-30T17:59:29.297Z,31.00
2022-08-30T18:02:00.238Z,30.04
2022-08-30T18:04:28.935Z,30.90
2022-08-30T18:06:56.796Z,30.89
2022-08-30T18:09:25.355Z,30.89
2022-08-30T18:11:56.485Z,30.97
2022-08-30T18:14:24.764Z,30.75
2022-08-30T18:16:54.430Z,30.84
2022-08-30T18:19:24.453Z,30.49
2022-08-30T18:21:53.687Z,30.91
2022-08-30T18:24:22.540Z,30.94
2022-08-30T18:26:50.838Z,30.73
2022-08-30T18:29:29.539Z,30.71
2022-08-30T18:32:01.393Z,30.91
2022-08-30T18:34:29.486Z,30.52
2022-08-30T18:36:57.343Z,30.76
2022-08-30T18:39:25.522Z,30.89
2022-08-30T18:41:58.436Z,30.63
2022-08-30T18:44:28.813Z,30.04
2022-08-30T18:46:58.303Z,30.25
2022-08-30T18:49:32.147Z,30.91
2022-08-30T18:52:02.391Z,30.91
2022-08-30T18:54:30.444Z,30.12
2022-08-30T18:56:58.496Z,30.60
2022-08-30T18:59:35.307Z,30.92
2022-08-30T19:02:08.143Z,31.02
2022-08-30T19:04:37.783Z,30.60
2022-08-30T19:07:08.071Z,30.95
2022-08-30T19:09:37.658Z,30.97
2022-08-30T19:12:09.561Z,30.53
2022-08-30T19:14:40.232Z,30.82
2022-08-30T19:17:08.277Z,30.66
2022-08-30T19:19:47.437Z,30.94
2022-08-30T19:22:21.616Z,30.94
2022-08-30T19:24:51.011Z,30.82
2022-08-30T19:27:38.057Z,30.91
2022-08-30T19:30:11.265Z,30.90
2022-08-30T19:32:38.932Z,30.90
2022-08-30T19:35:07.705Z,30.67
2022-08-30T19:37:36.953Z,30.88
2022-08-30T19:40:08.736Z,30.44
2022-08-30T19:42:43.376Z,30.88
2022-08-30T19:48:05.943Z,30.08
2022-08-30T19:50:33.804Z,30.67
2022-08-30T19:53:01.732Z,30.86
2022-08-30T19:55:31.409Z,30.66
2022-08-30T19:57:59.490Z,30.58
2022-08-30T20:00:27.566Z,30.83
2022-08-30T20:03:01.802Z,30.76
2022-08-30T20:05:31.383Z,30.85
2022-08-30T20:08:00.161Z,30.67
2022-08-30T20:10:28.071Z,30.75
2022-08-30T20:12:55.892Z,30.17
2022-08-30T20:15:25.020Z,29.87
2022-08-30T20:18:05.257Z,30.06
2022-08-30T20:20:36.962Z,30.86
2022-08-30T20:23:05.987Z,30.46
2022-08-30T20:24:23.646Z,31.22
2022-08-30T20:25:35.145Z,30.84
2022-08-30T20:28:03.499Z,30.52
2022-08-30T20:30:52.333Z,30.43
2022-08-30T20:33:21.710Z,30.85
2022-08-30T20:35:51.474Z,30.86
2022-08-30T20:38:24.255Z,30.85
2022-08-30T20:40:56.647Z,30.82
2022-08-30T20:43:27.560Z,30.57
2022-08-30T20:45:56.257Z,30.51
2022-08-30T20:48:27.206Z,30.70
2022-08-30T20:50:55.056Z,30.68
2022-08-30T20:53:22.709Z,30.68
2022-08-30T20:55:50.505Z,30.51
2022-08-30T20:58:18.478Z,30.44
2022-08-30T21:00:53.628Z,30.46
2022-08-30T21:03:27.232Z,30.15
2022-08-30T21:05:56.789Z,30.62
2022-08-30T21:08:25.545Z,30.42
2022-08-30T21:10:53.995Z,30.71
2022-08-30T21:13:22.111Z,30.74
2022-08-30T21:15:55.547Z,30.75
2022-08-30T21:18:31.221Z,30.77
2022-08-30T21:21:00.321Z,30.78
2022-08-30T21:23:27.991Z,30.70
2022-08-30T21:25:56.867Z,30.50
2022-08-30T21:28:24.596Z,30.42
2022-08-30T21:31:07.170Z,30.80
2022-08-30T21:33:35.526Z,30.43
2022-08-30T21:36:22.563Z,30.15
2022-08-30T21:38:52.877Z,30.81
2022-08-30T21:41:22.124Z,30.68
2022-08-30T21:43:59.549Z,30.82
2022-08-30T21:46:29.597Z,30.52
2022-08-30T21:49:01.415Z,30.76
2022-08-30T21:51:34.283Z,30.62
2022-08-30T21:54:02.678Z,30.58
2022-08-30T21:56:30.779Z,30.38
2022-08-30T21:58:58.619Z,30.78
2022-08-30T22:01:28.850Z,30.68
2022-08-30T22:03:59.222Z,30.77
2022-08-30T22:06:30.598Z,30.25
2022-08-30T22:09:01.360Z,30.54
2022-08-30T22:11:31.518Z,30.64
2022-08-30T22:13:59.461Z,30.63
2022-08-30T22:16:29.437Z,30.74
2022-08-30T22:18:57.441Z,30.64
2022-08-30T22:21:27.741Z,30.50
2022-08-30T22:23:56.558Z,30.70
2022-08-30T22:26:25.369Z,30.57
2022-08-30T22:28:54.601Z,30.71
2022-08-30T22:31:23.978Z,30.33
2022-08-30T22:33:52.951Z,30.32
2022-08-30T22:36:24.380Z,30.67
2022-08-30T22:39:01.882Z,30.67
2022-08-30T22:41:34.146Z,30.49
2022-08-30T22:44:02.664Z,30.66
2022-08-30T22:46:34.218Z,30.56
2022-08-30T22:49:08.384Z,30.66
2022-08-30T22:51:37.341Z,30.67
2022-08-30T22:54:07.131Z,30.55
2022-08-30T22:56:36.139Z,30.39
2022-08-30T22:59:04.938Z,30.63
2022-08-30T23:01:37.065Z,30.31
2022-08-30T23:04:07.520Z,30.33
2022-08-30T23:06:35.838Z,30.63
2022-08-30T23:09:05.118Z,30.62
2022-08-30T23:11:33.410Z,30.42
2022-08-30T23:14:03.254Z,30.48
2022-08-30T23:16:32.842Z,30.58
2022-08-30T23:19:00.731Z,30.58
2022-08-30T23:21:30.423Z,30.58
2022-08-30T23:24:17.523Z,30.36
2022-08-30T23:27:04.871Z,30.38
2022-08-30T23:29:52.523Z,30.42
2022-08-30T23:32:40.161Z,29.96
2022-08-30T23:35:30.567Z,30.50
2022-08-30T23:38:18.789Z,30.23
2022-08-30T23:41:05.232Z,30.26
2022-08-30T23:43:51.628Z,30.45
2022-08-30T23:46:40.987Z,30.43
2022-08-30T23:49:27.971Z,30.39
2022-08-30T23:52:14.133Z,30.38
2022-08-30T23:55:00.426Z,30.28
2022-08-30T23:57:46.555Z,29.70
